ANA1894 RJTH-RJTT
Flight info
| Callsign | ANA1894 |
|---|---|
| Flight time | 0h 35m |
| Altitude | 27000 |
| Route | TOPIT Y875 AROSA |
| Aircraft | A320/M-SDE3FGHIRWY/LB1 |
Departure
| Time | 2026-05-08 04:58 |
|---|---|
| Airport | Hachijojima Airport (RJTH) |
Arrival
| Time | 2026-05-08 05:34 |
|---|---|
| Airport | Tokyo Haneda International Airport (RJTT) |
| Time | Latitude | Longitude | Altitude | Speed | Heading |
|---|---|---|---|---|---|
| 2026-05-08 04:10 | 33.11600 | 139.78326 | 300 ft | 0 kts | 339° |
| 2026-05-08 04:49 | 33.11585 | 139.78333 | 291 ft | 2 kts | 339° |
| 2026-05-08 04:49 | 33.11569 | 139.78340 | 290 ft | 2 kts | 340° |
| 2026-05-08 04:50 | 33.11555 | 139.78351 | 290 ft | 2 kts | 277° |
| 2026-05-08 04:50 | 33.11557 | 139.78370 | 293 ft | 2 kts | 251° |
| 2026-05-08 04:50 | 33.11560 | 139.78381 | 291 ft | 1 kts | 248° |
| 2026-05-08 04:53 | 33.11559 | 139.78380 | 292 ft | 1 kts | 248° |
| 2026-05-08 04:53 | 33.11555 | 139.78367 | 290 ft | 3 kts | 246° |
| 2026-05-08 04:54 | 33.11539 | 139.78342 | 291 ft | 5 kts | 226° |
| 2026-05-08 04:54 | 33.11500 | 139.78342 | 289 ft | 7 kts | 161° |
| 2026-05-08 04:54 | 33.11463 | 139.78365 | 291 ft | 5 kts | 136° |
| 2026-05-08 04:54 | 33.11455 | 139.78383 | 292 ft | 3 kts | 110° |
| 2026-05-08 04:55 | 33.11482 | 139.78494 | 292 ft | 22 kts | 70° |
| 2026-05-08 04:55 | 33.11532 | 139.78656 | 293 ft | 20 kts | 70° |
| 2026-05-08 04:55 | 33.11577 | 139.78801 | 293 ft | 18 kts | 69° |
| 2026-05-08 04:55 | 33.11627 | 139.78954 | 292 ft | 21 kts | 69° |
| 2026-05-08 04:56 | 33.11679 | 139.79120 | 289 ft | 21 kts | 70° |
| 2026-05-08 04:56 | 33.11730 | 139.79289 | 286 ft | 22 kts | 70° |
| 2026-05-08 04:56 | 33.11794 | 139.79442 | 283 ft | 19 kts | 61° |
| 2026-05-08 04:56 | 33.11799 | 139.79507 | 281 ft | 2 kts | 178° |
| 2026-05-08 04:57 | 33.11794 | 139.79488 | 281 ft | 3 kts | 250° |
| 2026-05-08 04:57 | 33.11794 | 139.79487 | 281 ft | 0 kts | 250° |
| 2026-05-08 04:58 | 33.11752 | 139.79358 | 283 ft | 54 kts | 248° |
| 2026-05-08 04:58 | 33.11515 | 139.78632 | 298 ft | 131 kts | 249° |
| 2026-05-08 04:58 | 33.11181 | 139.77509 | 708 ft | 149 kts | 247° |
| 2026-05-08 04:58 | 33.10852 | 139.76295 | 1538 ft | 156 kts | 249° |
| 2026-05-08 04:59 | 33.10499 | 139.75071 | 2445 ft | 156 kts | 245° |
| 2026-05-08 04:59 | 33.10075 | 139.73824 | 2834 ft | 172 kts | 244° |
| 2026-05-08 04:59 | 33.09599 | 139.72412 | 3076 ft | 197 kts | 250° |
| 2026-05-08 04:59 | 33.09690 | 139.70667 | 3362 ft | 236 kts | 289° |
| 2026-05-08 05:00 | 33.10885 | 139.69144 | 3882 ft | 273 kts | 326° |
| 2026-05-08 05:00 | 33.12797 | 139.68667 | 4740 ft | 295 kts | 1° |
| 2026-05-08 05:00 | 33.14792 | 139.69381 | 5694 ft | 305 kts | 21° |
| 2026-05-08 05:00 | 33.16725 | 139.70451 | 6553 ft | 308 kts | 22° |
| 2026-05-08 05:01 | 33.18678 | 139.71534 | 7360 ft | 311 kts | 22° |
| 2026-05-08 05:01 | 33.20655 | 139.72632 | 8177 ft | 315 kts | 22° |
| 2026-05-08 05:01 | 33.22664 | 139.73698 | 8974 ft | 317 kts | 17° |
| 2026-05-08 05:01 | 33.24777 | 139.74485 | 9782 ft | 319 kts | 10° |
| 2026-05-08 05:02 | 33.26958 | 139.75073 | 10334 ft | 329 kts | 7° |
| 2026-05-08 05:02 | 33.29288 | 139.75603 | 10552 ft | 353 kts | 6° |
| 2026-05-08 05:02 | 33.31781 | 139.76150 | 10715 ft | 376 kts | 7° |
| 2026-05-08 05:02 | 33.34408 | 139.76753 | 11102 ft | 389 kts | 8° |
| 2026-05-08 05:03 | 33.37078 | 139.77410 | 11731 ft | 394 kts | 9° |
| 2026-05-08 05:03 | 33.39774 | 139.78110 | 12405 ft | 398 kts | 9° |
| 2026-05-08 05:03 | 33.42491 | 139.78839 | 13074 ft | 402 kts | 9° |
| 2026-05-08 05:03 | 33.45227 | 139.79581 | 13725 ft | 405 kts | 9° |
| 2026-05-08 05:04 | 33.47988 | 139.80328 | 14292 ft | 408 kts | 9° |
| 2026-05-08 05:04 | 33.50766 | 139.81078 | 14873 ft | 411 kts | 9° |
| 2026-05-08 05:04 | 33.53567 | 139.81829 | 15432 ft | 414 kts | 9° |
| 2026-05-08 05:04 | 33.56386 | 139.82579 | 15992 ft | 417 kts | 9° |
| 2026-05-08 05:05 | 33.59234 | 139.83335 | 16556 ft | 420 kts | 9° |
| 2026-05-08 05:05 | 33.62098 | 139.84096 | 17114 ft | 423 kts | 9° |
| 2026-05-08 05:05 | 33.64982 | 139.84864 | 17672 ft | 426 kts | 9° |
| 2026-05-08 05:05 | 33.67846 | 139.85629 | 18199 ft | 429 kts | 9° |
| 2026-05-08 05:06 | 33.70778 | 139.86411 | 18541 ft | 436 kts | 9° |
| 2026-05-08 05:06 | 33.73790 | 139.87212 | 18238 ft | 447 kts | 9° |
| 2026-05-08 05:06 | 33.76836 | 139.88024 | 18039 ft | 449 kts | 9° |
| 2026-05-08 05:06 | 33.79881 | 139.88844 | 17831 ft | 448 kts | 9° |
| 2026-05-08 05:07 | 33.82925 | 139.89662 | 17620 ft | 448 kts | 9° |
| 2026-05-08 05:07 | 33.85965 | 139.90478 | 17422 ft | 447 kts | 9° |
| 2026-05-08 05:07 | 33.88993 | 139.91292 | 17185 ft | 446 kts | 9° |
| 2026-05-08 05:07 | 33.92018 | 139.92104 | 16933 ft | 445 kts | 9° |
| 2026-05-08 05:08 | 33.95032 | 139.92914 | 16676 ft | 443 kts | 9° |
| 2026-05-08 05:08 | 33.98036 | 139.93721 | 16430 ft | 442 kts | 9° |
| 2026-05-08 05:08 | 34.01032 | 139.94525 | 16189 ft | 440 kts | 9° |
| 2026-05-08 05:08 | 34.04018 | 139.95328 | 15942 ft | 439 kts | 9° |
| 2026-05-08 05:09 | 34.06991 | 139.96129 | 15698 ft | 437 kts | 9° |
| 2026-05-08 05:09 | 34.09957 | 139.96929 | 15460 ft | 436 kts | 9° |
| 2026-05-08 05:09 | 34.12914 | 139.97733 | 15225 ft | 435 kts | 10° |
| 2026-05-08 05:09 | 34.15796 | 139.98862 | 15001 ft | 437 kts | 20° |
| 2026-05-08 05:10 | 34.18502 | 140.00540 | 14898 ft | 438 kts | 30° |
| 2026-05-08 05:10 | 34.23129 | 140.05342 | 14924 ft | 442 kts | 49° |
| 2026-05-08 05:10 | 34.25012 | 140.08282 | 14929 ft | 442 kts | 52° |
| 2026-05-08 05:11 | 34.26868 | 140.11238 | 14925 ft | 442 kts | 52° |
| 2026-05-08 05:11 | 34.28691 | 140.14236 | 14926 ft | 442 kts | 56° |
| 2026-05-08 05:11 | 34.30265 | 140.17432 | 14923 ft | 443 kts | 63° |
| 2026-05-08 05:11 | 34.31560 | 140.20804 | 14926 ft | 442 kts | 68° |
| 2026-05-08 05:12 | 34.32778 | 140.24224 | 14927 ft | 443 kts | 68° |
| 2026-05-08 05:12 | 34.33996 | 140.27641 | 14930 ft | 443 kts | 68° |
| 2026-05-08 05:12 | 34.35218 | 140.31064 | 14929 ft | 443 kts | 68° |
| 2026-05-08 05:12 | 34.36442 | 140.34492 | 14928 ft | 444 kts | 68° |
| 2026-05-08 05:13 | 34.37671 | 140.37914 | 14926 ft | 444 kts | 65° |
| 2026-05-08 05:13 | 34.39297 | 140.41088 | 14758 ft | 444 kts | 49° |
| 2026-05-08 05:13 | 34.41554 | 140.43594 | 14526 ft | 439 kts | 32° |
| 2026-05-08 05:13 | 34.44257 | 140.45243 | 14292 ft | 433 kts | 15° |
| 2026-05-08 05:14 | 34.47178 | 140.45948 | 14064 ft | 425 kts | 359° |
| 2026-05-08 05:14 | 34.50087 | 140.45707 | 13840 ft | 416 kts | 344° |
| 2026-05-08 05:14 | 34.52905 | 140.44950 | 13607 ft | 414 kts | 342° |
| 2026-05-08 05:14 | 34.55679 | 140.44199 | 13358 ft | 413 kts | 342° |
| 2026-05-08 05:15 | 34.58482 | 140.43445 | 13105 ft | 412 kts | 343° |
| 2026-05-08 05:15 | 34.61279 | 140.42698 | 12848 ft | 411 kts | 343° |
| 2026-05-08 05:15 | 34.64064 | 140.41952 | 12598 ft | 409 kts | 342° |
| 2026-05-08 05:15 | 34.66840 | 140.41208 | 12347 ft | 408 kts | 343° |
| 2026-05-08 05:16 | 34.69608 | 140.40464 | 12098 ft | 406 kts | 343° |
| 2026-05-08 05:16 | 34.72364 | 140.39720 | 11851 ft | 405 kts | 343° |
| 2026-05-08 05:16 | 34.75111 | 140.38979 | 11604 ft | 404 kts | 343° |
| 2026-05-08 05:16 | 34.77847 | 140.38241 | 11366 ft | 402 kts | 343° |
| 2026-05-08 05:17 | 34.80580 | 140.37506 | 11126 ft | 401 kts | 343° |
| 2026-05-08 05:17 | 34.83298 | 140.36772 | 10891 ft | 400 kts | 343° |
| 2026-05-08 05:17 | 34.86009 | 140.36038 | 10653 ft | 398 kts | 343° |
| 2026-05-08 05:17 | 34.88710 | 140.35307 | 10416 ft | 397 kts | 343° |
| 2026-05-08 05:18 | 34.91406 | 140.34579 | 10177 ft | 396 kts | 343° |
| 2026-05-08 05:18 | 34.94091 | 140.33854 | 9947 ft | 395 kts | 343° |
| 2026-05-08 05:18 | 34.96737 | 140.33142 | 9766 ft | 381 kts | 343° |
| 2026-05-08 05:18 | 34.99266 | 140.32464 | 9645 ft | 364 kts | 342° |
| 2026-05-08 05:19 | 35.01691 | 140.31811 | 9517 ft | 349 kts | 342° |
| 2026-05-08 05:19 | 35.04011 | 140.31183 | 9388 ft | 335 kts | 342° |
| 2026-05-08 05:19 | 35.06247 | 140.30577 | 9254 ft | 323 kts | 342° |
| 2026-05-08 05:19 | 35.08398 | 140.29993 | 9128 ft | 311 kts | 342° |
| 2026-05-08 05:20 | 35.10485 | 140.29422 | 8999 ft | 306 kts | 341° |
| 2026-05-08 05:20 | 35.12551 | 140.28853 | 8872 ft | 303 kts | 341° |
| 2026-05-08 05:20 | 35.14606 | 140.28284 | 8746 ft | 302 kts | 341° |
| 2026-05-08 05:20 | 35.16654 | 140.27719 | 8619 ft | 301 kts | 341° |
| 2026-05-08 05:21 | 35.18695 | 140.27158 | 8491 ft | 300 kts | 342° |
| 2026-05-08 05:21 | 35.20732 | 140.26602 | 8366 ft | 299 kts | 342° |
| 2026-05-08 05:21 | 35.22764 | 140.26050 | 8240 ft | 299 kts | 342° |
| 2026-05-08 05:21 | 35.24793 | 140.25500 | 8119 ft | 298 kts | 342° |
| 2026-05-08 05:22 | 35.26815 | 140.24949 | 7991 ft | 297 kts | 342° |
| 2026-05-08 05:22 | 35.28827 | 140.24398 | 7977 ft | 296 kts | 342° |
| 2026-05-08 05:22 | 35.30842 | 140.23846 | 8022 ft | 297 kts | 342° |
| 2026-05-08 05:22 | 35.32859 | 140.23295 | 8022 ft | 297 kts | 342° |
| 2026-05-08 05:23 | 35.34872 | 140.22746 | 8027 ft | 296 kts | 342° |
| 2026-05-08 05:23 | 35.36879 | 140.22200 | 8026 ft | 295 kts | 343° |
| 2026-05-08 05:23 | 35.38930 | 140.21883 | 7940 ft | 299 kts | 350° |
| 2026-05-08 05:23 | 35.40999 | 140.21670 | 7795 ft | 298 kts | 350° |
| 2026-05-08 05:24 | 35.43053 | 140.21463 | 7659 ft | 297 kts | 350° |
| 2026-05-08 05:24 | 35.45109 | 140.21256 | 7525 ft | 296 kts | 350° |
| 2026-05-08 05:24 | 35.47161 | 140.21047 | 7396 ft | 295 kts | 350° |
| 2026-05-08 05:24 | 35.49176 | 140.20840 | 7263 ft | 294 kts | 350° |
| 2026-05-08 05:25 | 35.51184 | 140.20634 | 7133 ft | 293 kts | 350° |
| 2026-05-08 05:25 | 35.53199 | 140.20382 | 7034 ft | 282 kts | 343° |
| 2026-05-08 05:25 | 35.55073 | 140.19796 | 6676 ft | 278 kts | 339° |
| 2026-05-08 05:25 | 35.56913 | 140.19117 | 6309 ft | 273 kts | 331° |
| 2026-05-08 05:26 | 35.58492 | 140.17934 | 5957 ft | 261 kts | 312° |
| 2026-05-08 05:26 | 35.59627 | 140.16291 | 5766 ft | 245 kts | 296° |
| 2026-05-08 05:26 | 35.60336 | 140.14465 | 5580 ft | 229 kts | 281° |
| 2026-05-08 05:26 | 35.60543 | 140.12593 | 5416 ft | 218 kts | 266° |
| 2026-05-08 05:27 | 35.60537 | 140.10763 | 5258 ft | 210 kts | 266° |
| 2026-05-08 05:27 | 35.60534 | 140.09006 | 5102 ft | 199 kts | 266° |
| 2026-05-08 05:27 | 35.60533 | 140.07343 | 4947 ft | 192 kts | 265° |
| 2026-05-08 05:27 | 35.60529 | 140.05710 | 4655 ft | 190 kts | 265° |
| 2026-05-08 05:28 | 35.60526 | 140.04128 | 4403 ft | 179 kts | 265° |
| 2026-05-08 05:28 | 35.60522 | 140.02646 | 4122 ft | 169 kts | 265° |
| 2026-05-08 05:28 | 35.60517 | 140.01248 | 3877 ft | 159 kts | 264° |
| 2026-05-08 05:28 | 35.60512 | 139.99932 | 3653 ft | 149 kts | 264° |
| 2026-05-08 05:29 | 35.60507 | 139.98708 | 3464 ft | 137 kts | 264° |
| 2026-05-08 05:29 | 35.60500 | 139.97559 | 3273 ft | 133 kts | 263° |
| 2026-05-08 05:29 | 35.60492 | 139.96425 | 3078 ft | 132 kts | 262° |
| 2026-05-08 05:29 | 35.60484 | 139.95300 | 2888 ft | 131 kts | 262° |
| 2026-05-08 05:30 | 35.60474 | 139.94174 | 2695 ft | 133 kts | 262° |
| 2026-05-08 05:30 | 35.60463 | 139.93036 | 2501 ft | 134 kts | 263° |
| 2026-05-08 05:30 | 35.60456 | 139.91895 | 2308 ft | 134 kts | 263° |
| 2026-05-08 05:30 | 35.60452 | 139.91138 | 2186 ft | 134 kts | 263° |
| 2026-05-08 05:31 | 35.60440 | 139.89620 | 1929 ft | 134 kts | 263° |
| 2026-05-08 05:31 | 35.60430 | 139.88474 | 1741 ft | 136 kts | 262° |
| 2026-05-08 05:31 | 35.60421 | 139.87313 | 1548 ft | 136 kts | 261° |
| 2026-05-08 05:31 | 35.60412 | 139.86147 | 1339 ft | 137 kts | 261° |
| 2026-05-08 05:32 | 35.60404 | 139.85056 | 1150 ft | 138 kts | 261° |
| 2026-05-08 05:32 | 35.60393 | 139.83865 | 968 ft | 140 kts | 259° |
| 2026-05-08 05:32 | 35.60264 | 139.82697 | 839 ft | 138 kts | 249° |
| 2026-05-08 05:32 | 35.59950 | 139.81609 | 746 ft | 132 kts | 239° |
| 2026-05-08 05:33 | 35.59658 | 139.80939 | 688 ft | 132 kts | 233° |
| 2026-05-08 05:33 | 35.59140 | 139.80069 | 613 ft | 130 kts | 225° |
| 2026-05-08 05:33 | 35.58507 | 139.79284 | 472 ft | 129 kts | 217° |
| 2026-05-08 05:33 | 35.57801 | 139.78605 | 304 ft | 129 kts | 212° |
| 2026-05-08 05:34 | 35.57061 | 139.77987 | 151 ft | 129 kts | 210° |
| 2026-05-08 05:34 | 35.56338 | 139.77352 | 38 ft | 124 kts | 211° |
| 2026-05-08 05:34 | 35.55819 | 139.76923 | 27 ft | 47 kts | 216° |
| 2026-05-08 05:34 | 35.55698 | 139.76841 | 26 ft | 17 kts | 172° |
| 2026-05-08 05:35 | 35.55615 | 139.76943 | 24 ft | 18 kts | 118° |
| 2026-05-08 05:35 | 35.55641 | 139.77029 | 23 ft | 1 kts | 24° |
| 2026-05-08 05:35 | 35.55754 | 139.77130 | 26 ft | 26 kts | 35° |
| 2026-05-08 05:35 | 35.55896 | 139.77248 | 25 ft | 19 kts | 37° |
| 2026-05-08 05:36 | 35.55968 | 139.77376 | 25 ft | 18 kts | 59° |
| 2026-05-08 05:36 | 35.56031 | 139.77507 | 23 ft | 17 kts | 60° |
| 2026-05-08 05:36 | 35.56085 | 139.77624 | 26 ft | 15 kts | 60° |
| 2026-05-08 05:36 | 35.56133 | 139.77725 | 26 ft | 13 kts | 60° |
| 2026-05-08 05:37 | 35.56174 | 139.77812 | 28 ft | 11 kts | 58° |
| 2026-05-08 05:37 | 35.56209 | 139.77887 | 26 ft | 9 kts | 60° |
| 2026-05-08 05:37 | 35.56239 | 139.77952 | 27 ft | 8 kts | 60° |
| 2026-05-08 05:37 | 35.56267 | 139.78010 | 29 ft | 8 kts | 58° |
| 2026-05-08 05:38 | 35.56308 | 139.78092 | 26 ft | 13 kts | 59° |
| 2026-05-08 05:38 | 35.56337 | 139.78185 | 26 ft | 11 kts | 93° |
| 2026-05-08 05:38 | 35.56283 | 139.78252 | 27 ft | 12 kts | 146° |
| 2026-05-08 05:38 | 35.56202 | 139.78309 | 24 ft | 14 kts | 149° |
| 2026-05-08 05:39 | 35.56112 | 139.78376 | 27 ft | 16 kts | 149° |
| 2026-05-08 05:39 | 35.56012 | 139.78448 | 23 ft | 17 kts | 153° |
| 2026-05-08 05:39 | 35.55900 | 139.78522 | 22 ft | 19 kts | 150° |
| 2026-05-08 05:39 | 35.55785 | 139.78604 | 23 ft | 18 kts | 149° |
| 2026-05-08 05:40 | 35.55705 | 139.78662 | 26 ft | 9 kts | 150° |
| 2026-05-08 05:40 | 35.55655 | 139.78634 | 26 ft | 9 kts | 238° |
| 2026-05-08 05:40 | 35.55638 | 139.78600 | 25 ft | 0 kts | 238° |